createdAt,value
2023-01-15T00:00:39.867Z,91.30
2023-01-15T00:04:06.296Z,91.10
2023-01-15T00:07:31.611Z,91.30
2023-01-15T00:10:56.314Z,91.30
2023-01-15T00:14:19.967Z,91.70
2023-01-15T00:17:43.643Z,91.40
2023-01-15T00:21:08.730Z,91.40
2023-01-15T00:24:51.204Z,91.00
2023-01-15T00:28:15.111Z,90.50
2023-01-15T00:31:42.949Z,91.30
2023-01-15T00:35:07.727Z,91.40
2023-01-15T00:38:31.212Z,91.80
2023-01-15T00:41:56.908Z,91.90
2023-01-15T00:45:20.526Z,91.80
2023-01-15T00:48:44.181Z,92.00
2023-01-15T00:52:07.708Z,91.90
2023-01-15T00:55:31.195Z,92.00
2023-01-15T00:58:56.311Z,92.20
2023-01-15T01:02:20.307Z,91.70
2023-01-15T01:05:43.820Z,92.10
2023-01-15T01:09:07.390Z,91.90
2023-01-15T01:12:30.952Z,92.10
2023-01-15T01:15:55.946Z,91.90
2023-01-15T01:19:22.427Z,92.20
2023-01-15T01:22:46.057Z,92.20
2023-01-15T01:26:09.907Z,91.90
2023-01-15T01:29:33.466Z,91.80
2023-01-15T01:32:58.347Z,91.80
2023-01-15T01:36:26.550Z,91.50
2023-01-15T01:39:50.525Z,91.70
2023-01-15T01:43:20.245Z,91.90
2023-01-15T01:46:43.873Z,92.00
2023-01-15T01:50:13.770Z,92.10
2023-01-15T01:53:37.481Z,91.90
2023-01-15T01:57:01.453Z,92.00
2023-01-15T02:00:26.004Z,92.00
2023-01-15T02:03:51.043Z,92.00
2023-01-15T02:07:16.871Z,92.00
2023-01-15T02:10:41.435Z,92.00
2023-01-15T02:14:09.861Z,92.00
2023-01-15T02:17:40.286Z,91.70
2023-01-15T02:21:12.742Z,91.90
2023-01-15T02:24:51.559Z,91.80
2023-01-15T02:28:22.795Z,91.50
2023-01-15T02:31:51.429Z,91.80
2023-01-15T02:35:24.358Z,91.60
2023-01-15T02:38:51.256Z,91.60
2023-01-15T02:42:17.370Z,91.70
2023-01-15T02:45:49.782Z,91.40
2023-01-15T02:49:18.106Z,91.40
2023-01-15T02:52:46.341Z,91.50
2023-01-15T02:56:16.230Z,91.30
2023-01-15T02:59:49.707Z,91.60
2023-01-15T03:03:19.497Z,91.60
2023-01-15T03:06:47.257Z,91.40
2023-01-15T03:10:12.278Z,91.20
2023-01-15T03:13:46.474Z,91.30
2023-01-15T03:17:17.409Z,91.20
2023-01-15T03:20:50.565Z,91.20
2023-01-15T03:24:16.293Z,90.90
2023-01-15T03:27:40.530Z,90.70
2023-01-15T03:31:04.445Z,90.60
2023-01-15T03:34:34.828Z,90.60
2023-01-15T03:38:00.412Z,90.60
2023-01-15T03:41:33.945Z,90.30
2023-01-15T03:45:04.785Z,90.00
2023-01-15T03:48:36.001Z,90.00
2023-01-15T03:52:06.742Z,90.30
2023-01-15T03:55:42.436Z,89.70
2023-01-15T03:59:12.999Z,89.30
2023-01-15T04:02:55.377Z,89.60
2023-01-15T04:06:25.059Z,89.60
2023-01-15T04:09:49.397Z,88.70
2023-01-15T04:13:15.698Z,89.20
2023-01-15T04:16:40.354Z,89.50
2023-01-15T04:20:04.571Z,89.40
2023-01-15T04:23:28.323Z,89.60
2023-01-15T04:26:51.880Z,89.20
2023-01-15T04:30:17.403Z,89.40
2023-01-15T04:33:41.012Z,89.00
2023-01-15T04:37:04.780Z,89.40
2023-01-15T04:40:46.300Z,89.00
2023-01-15T04:44:09.869Z,89.30
2023-01-15T04:47:34.817Z,89.00
2023-01-15T04:50:58.410Z,89.40
2023-01-15T04:54:22.947Z,89.00
2023-01-15T04:57:46.480Z,89.00
2023-01-15T05:01:12.931Z,88.90
2023-01-15T05:04:38.052Z,88.40
2023-01-15T05:08:01.581Z,88.50
2023-01-15T05:11:25.236Z,88.20
2023-01-15T05:14:48.897Z,88.70
2023-01-15T05:18:14.904Z,88.40
2023-01-15T05:21:42.976Z,88.40
2023-01-15T05:25:07.379Z,88.20
2023-01-15T05:28:30.921Z,88.30
2023-01-15T05:31:54.420Z,89.10
2023-01-15T05:35:18.214Z,88.60
2023-01-15T05:38:43.431Z,88.10
2023-01-15T05:42:07.860Z,87.80
2023-01-15T05:45:31.405Z,88.00
2023-01-15T05:48:54.908Z,88.20
2023-01-15T05:52:18.480Z,88.30
2023-01-15T05:55:43.447Z,88.00
2023-01-15T05:59:08.283Z,88.20
2023-01-15T06:02:33.273Z,87.90
2023-01-15T06:05:57.556Z,87.50
2023-01-15T06:09:22.915Z,87.30
2023-01-15T06:12:47.888Z,87.40
2023-01-15T06:16:11.752Z,87.40
2023-01-15T06:19:35.364Z,87.40
2023-01-15T06:22:58.917Z,87.20
2023-01-15T06:26:22.552Z,87.50
2023-01-15T06:29:47.467Z,87.70
2023-01-15T06:33:11.010Z,87.60
2023-01-15T06:36:34.524Z,87.40
2023-01-15T06:39:58.033Z,87.80
2023-01-15T06:43:38.987Z,88.10
2023-01-15T06:47:22.709Z,87.80
2023-01-15T06:50:46.686Z,87.50
2023-01-15T06:54:10.225Z,87.80
2023-01-15T06:57:33.777Z,87.80
2023-01-15T07:00:57.425Z,87.40
2023-01-15T07:04:22.380Z,87.30
2023-01-15T07:07:45.995Z,87.50
2023-01-15T07:11:10.688Z,87.70
2023-01-15T07:14:34.225Z,87.80
2023-01-15T07:17:58.088Z,87.20
2023-01-15T07:21:23.445Z,87.20
2023-01-15T07:24:46.990Z,86.60
2023-01-15T07:28:10.558Z,86.20
2023-01-15T07:31:34.310Z,86.30
2023-01-15T07:34:57.877Z,86.60
2023-01-15T07:38:22.800Z,86.20
2023-01-15T07:42:03.779Z,86.00
2023-01-15T07:45:48.598Z,86.10
2023-01-15T07:49:30.029Z,85.30
2023-01-15T07:52:53.935Z,85.30
2023-01-15T07:56:19.149Z,85.10
2023-01-15T07:59:42.878Z,85.30
2023-01-15T08:03:06.497Z,85.20
2023-01-15T08:06:30.381Z,85.10
2023-01-15T08:09:53.970Z,84.90
2023-01-15T08:13:36.238Z,85.10
2023-01-15T08:16:59.847Z,84.90
2023-01-15T08:20:25.950Z,84.10
2023-01-15T08:23:51.166Z,84.30
2023-01-15T08:27:14.960Z,83.60
2023-01-15T08:30:39.852Z,83.30
2023-01-15T08:34:03.536Z,83.50
2023-01-15T08:37:27.212Z,82.70
2023-01-15T08:41:00.623Z,81.80
2023-01-15T08:44:24.751Z,80.40
2023-01-15T08:47:49.811Z,79.10
2023-01-15T08:51:13.896Z,77.10
2023-01-15T08:54:37.519Z,76.00
2023-01-15T08:58:01.227Z,75.60
2023-01-15T09:01:25.026Z,72.90
2023-01-15T09:04:52.510Z,71.70
2023-01-15T09:08:16.113Z,72.50
2023-01-15T09:11:40.980Z,72.10
2023-01-15T09:15:05.138Z,72.70
2023-01-15T09:18:28.808Z,73.00
2023-01-15T09:21:53.731Z,73.90
2023-01-15T09:25:19.368Z,75.20
2023-01-15T09:28:42.874Z,76.20
2023-01-15T09:32:08.081Z,77.20
2023-01-15T09:35:31.566Z,77.40
2023-01-15T09:38:56.951Z,77.70
2023-01-15T09:42:46.818Z,79.00
2023-01-15T09:46:14.675Z,78.90
2023-01-15T09:50:01.551Z,79.00
2023-01-15T09:53:46.049Z,78.60
2023-01-15T09:57:14.267Z,78.50
2023-01-15T10:00:41.516Z,78.80
2023-01-15T10:04:14.271Z,78.10
2023-01-15T10:07:42.963Z,77.60
2023-01-15T10:11:22.999Z,78.10
2023-01-15T10:14:56.288Z,76.20
2023-01-15T10:18:22.236Z,70.90
2023-01-15T10:21:54.290Z,67.90
2023-01-15T10:25:21.194Z,67.50
2023-01-15T10:29:03.289Z,64.00
2023-01-15T10:32:37.696Z,62.30
2023-01-15T10:36:06.182Z,59.80
2023-01-15T10:39:35.180Z,62.10
2023-01-15T10:43:06.633Z,61.20
2023-01-15T10:46:38.032Z,59.90
2023-01-15T10:50:04.939Z,57.30
2023-01-15T10:53:33.361Z,57.50
2023-01-15T10:57:09.609Z,57.30
2023-01-15T11:00:35.596Z,58.20
2023-01-15T11:03:59.167Z,59.40
2023-01-15T11:07:28.433Z,59.60
2023-01-15T11:10:52.007Z,60.70
2023-01-15T11:14:33.134Z,61.10
2023-01-15T11:18:14.087Z,60.60
2023-01-15T11:21:42.540Z,60.70
2023-01-15T11:25:10.722Z,60.30
2023-01-15T11:28:40.208Z,59.70
2023-01-15T11:32:03.922Z,60.90
2023-01-15T11:35:28.332Z,61.90
2023-01-15T11:38:52.820Z,61.20
2023-01-15T11:42:36.797Z,62.10
2023-01-15T11:46:17.893Z,62.20
2023-01-15T11:49:58.720Z,62.50
2023-01-15T11:53:26.075Z,62.90
2023-01-15T11:56:49.581Z,62.70
2023-01-15T12:00:24.647Z,63.10
2023-01-15T12:03:48.336Z,62.50
2023-01-15T12:07:14.990Z,62.40
2023-01-15T12:11:17.539Z,62.70
2023-01-15T12:15:04.021Z,62.80
2023-01-15T12:19:06.545Z,61.90
2023-01-15T12:22:42.727Z,62.50
2023-01-15T12:26:17.424Z,61.80
2023-01-15T12:29:46.935Z,61.80
2023-01-15T12:33:38.231Z,60.50
2023-01-15T12:37:08.619Z,61.80
2023-01-15T12:40:41.591Z,61.50
2023-01-15T12:44:24.127Z,61.80
2023-01-15T12:47:53.141Z,61.80
2023-01-15T12:51:24.519Z,60.90
2023-01-15T12:54:56.923Z,60.80
2023-01-15T12:58:38.629Z,60.40
2023-01-15T13:02:14.131Z,61.10
2023-01-15T13:05:42.720Z,61.60
2023-01-15T13:09:16.428Z,62.00
2023-01-15T13:12:41.629Z,61.90
2023-01-15T13:16:19.162Z,62.80
2023-01-15T13:19:52.154Z,62.40
2023-01-15T13:23:31.758Z,63.20
2023-01-15T13:27:08.287Z,63.30
2023-01-15T13:30:48.220Z,63.60
2023-01-15T13:34:19.510Z,62.70
2023-01-15T13:37:46.790Z,62.50
2023-01-15T13:41:10.748Z,61.90
2023-01-15T13:44:38.353Z,62.40
2023-01-15T13:48:09.020Z,61.60
2023-01-15T13:51:37.389Z,61.40
2023-01-15T13:55:09.508Z,61.60
2023-01-15T13:58:35.089Z,61.40
2023-01-15T14:01:58.787Z,61.50
2023-01-15T14:05:31.113Z,61.70
2023-01-15T14:08:55.319Z,62.00
2023-01-15T14:12:31.546Z,62.20
2023-01-15T14:16:05.378Z,62.00
2023-01-15T14:19:53.351Z,62.50
2023-01-15T14:23:44.545Z,62.90
2023-01-15T14:27:15.546Z,63.00
2023-01-15T14:31:03.099Z,63.30
2023-01-15T14:34:28.681Z,63.60
2023-01-15T14:37:55.460Z,64.20
2023-01-15T14:41:28.019Z,64.70
2023-01-15T14:44:59.890Z,64.60
2023-01-15T14:48:38.854Z,64.80
2023-01-15T14:52:04.047Z,65.70
2023-01-15T14:55:28.190Z,64.70
2023-01-15T14:59:00.803Z,64.90
2023-01-15T15:02:32.911Z,65.00
2023-01-15T15:05:56.551Z,64.60
2023-01-15T15:09:29.251Z,65.40
2023-01-15T15:12:58.998Z,65.90
2023-01-15T15:16:27.472Z,65.80
2023-01-15T15:19:59.939Z,65.80
2023-01-15T15:23:29.723Z,66.40
2023-01-15T15:26:53.345Z,66.30
2023-01-15T15:30:17.167Z,65.70
2023-01-15T15:33:43.004Z,65.50
2023-01-15T15:37:16.174Z,65.30
2023-01-15T15:40:45.657Z,65.10
2023-01-15T15:44:32.578Z,65.50
2023-01-15T15:48:15.337Z,65.40
2023-01-15T15:51:45.672Z,65.00
2023-01-15T15:55:17.051Z,63.80
2023-01-15T15:58:40.826Z,63.90
2023-01-15T16:02:18.076Z,64.20
2023-01-15T16:05:43.562Z,64.10
2023-01-15T16:09:11.861Z,64.20
2023-01-15T16:12:42.401Z,64.00
2023-01-15T16:16:08.296Z,64.00
2023-01-15T16:19:32.283Z,63.60
2023-01-15T16:22:58.207Z,64.30
2023-01-15T16:26:25.290Z,64.70
2023-01-15T16:29:51.531Z,65.10
2023-01-15T16:33:18.901Z,64.70
2023-01-15T16:36:45.429Z,64.60
2023-01-15T16:40:17.403Z,64.60
2023-01-15T16:43:54.349Z,64.70
2023-01-15T16:47:24.562Z,64.60
2023-01-15T16:50:48.077Z,64.20
2023-01-15T16:54:43.262Z,65.30
2023-01-15T16:58:18.990Z,64.00
2023-01-15T17:01:46.301Z,64.20
2023-01-15T17:05:20.562Z,64.10
2023-01-15T17:08:49.021Z,64.20
2023-01-15T17:12:25.030Z,64.00
2023-01-15T17:15:48.662Z,64.50
2023-01-15T17:19:13.677Z,64.30
2023-01-15T17:22:38.256Z,64.30
2023-01-15T17:26:02.182Z,64.50
2023-01-15T17:29:25.729Z,64.50
2023-01-15T17:32:49.604Z,65.00
2023-01-15T17:36:14.557Z,65.50
2023-01-15T17:39:38.077Z,65.60
2023-01-15T17:43:02.570Z,65.80
2023-01-15T17:46:26.261Z,65.90
2023-01-15T17:49:49.823Z,66.50
2023-01-15T17:53:14.814Z,66.40
2023-01-15T17:56:55.735Z,66.70
2023-01-15T18:00:37.636Z,66.80
2023-01-15T18:04:18.491Z,66.50
2023-01-15T18:07:44.331Z,67.10
2023-01-15T18:11:09.242Z,67.00
2023-01-15T18:14:32.837Z,66.40
2023-01-15T18:17:56.463Z,66.70
2023-01-15T18:21:20.137Z,66.30
2023-01-15T18:24:43.781Z,66.50
2023-01-15T18:28:08.684Z,66.20
2023-01-15T18:31:32.388Z,66.10
2023-01-15T18:34:56.038Z,66.20
2023-01-15T18:38:19.611Z,66.50
2023-01-15T18:42:00.471Z,66.80
2023-01-15T18:45:42.913Z,66.80
2023-01-15T18:49:06.604Z,66.90
2023-01-15T18:52:47.851Z,67.40
2023-01-15T18:56:11.329Z,68.80
2023-01-15T18:59:34.886Z,68.30
2023-01-15T19:03:01.225Z,68.70
2023-01-15T19:06:24.817Z,68.70
2023-01-15T19:09:48.411Z,68.90
2023-01-15T19:13:17.241Z,69.20
2023-01-15T19:16:54.681Z,68.80
2023-01-15T19:20:20.851Z,68.90
2023-01-15T19:23:44.384Z,68.80
2023-01-15T19:27:07.931Z,69.00
2023-01-15T19:30:32.190Z,69.20
2023-01-15T19:34:13.299Z,69.10
2023-01-15T19:37:43.462Z,69.40
2023-01-15T19:41:28.767Z,69.20
2023-01-15T19:45:09.617Z,69.30
2023-01-15T19:48:52.557Z,69.20
2023-01-15T19:52:33.456Z,69.50
2023-01-15T19:55:58.669Z,69.80
2023-01-15T19:59:22.250Z,69.20
2023-01-15T20:02:47.591Z,69.60
2023-01-15T20:06:11.662Z,69.80
2023-01-15T20:09:37.010Z,69.50
2023-01-15T20:13:19.380Z,69.70
2023-01-15T20:16:42.985Z,69.60
2023-01-15T20:20:07.717Z,69.60
2023-01-15T20:23:35.799Z,69.80
2023-01-15T20:26:59.369Z,69.80
2023-01-15T20:30:25.980Z,70.00
2023-01-15T20:33:50.135Z,70.30
2023-01-15T20:37:13.883Z,70.70
2023-01-15T20:40:37.502Z,70.90
2023-01-15T20:44:18.563Z,71.30
2023-01-15T20:48:01.800Z,71.70
2023-01-15T20:51:25.416Z,71.60
2023-01-15T20:54:50.420Z,72.40
2023-01-15T20:58:14.012Z,73.00
2023-01-15T21:01:37.721Z,74.30
2023-01-15T21:05:02.819Z,75.90
2023-01-15T21:08:26.523Z,76.50
2023-01-15T21:11:50.265Z,76.60
2023-01-15T21:15:13.883Z,76.60
2023-01-15T21:18:38.891Z,76.80
2023-01-15T21:22:04.029Z,77.20
2023-01-15T21:25:27.615Z,76.80
2023-01-15T21:28:54.425Z,76.70
2023-01-15T21:32:17.953Z,76.70
2023-01-15T21:35:42.021Z,76.40
2023-01-15T21:39:07.464Z,76.30
2023-01-15T21:42:48.759Z,76.60
2023-01-15T21:46:12.395Z,76.10
2023-01-15T21:49:35.971Z,76.20
2023-01-15T21:52:59.496Z,76.20
2023-01-15T21:56:24.439Z,76.80
2023-01-15T21:59:47.995Z,77.70
2023-01-15T22:03:13.858Z,79.40
2023-01-15T22:06:38.094Z,80.50
2023-01-15T22:10:02.185Z,81.50
2023-01-15T22:13:27.063Z,81.50
2023-01-15T22:16:53.562Z,81.40
2023-01-15T22:20:17.516Z,81.90
2023-01-15T22:23:41.159Z,81.30
2023-01-15T22:27:07.229Z,81.20
2023-01-15T22:30:33.798Z,81.50
2023-01-15T22:33:59.956Z,81.80
2023-01-15T22:37:23.487Z,81.40
2023-01-15T22:40:47.038Z,81.80
2023-01-15T22:44:11.054Z,81.50
2023-01-15T22:47:35.907Z,80.60
2023-01-15T22:50:59.433Z,80.00
2023-01-15T22:54:23.197Z,79.60
2023-01-15T22:57:47.629Z,79.30
2023-01-15T23:01:11.447Z,79.00
2023-01-15T23:04:36.480Z,78.30
2023-01-15T23:08:00.049Z,78.30
2023-01-15T23:11:24.240Z,78.60
2023-01-15T23:14:50.589Z,78.30
2023-01-15T23:18:14.176Z,78.10
2023-01-15T23:21:40.921Z,77.90
2023-01-15T23:25:04.811Z,77.50
2023-01-15T23:28:28.413Z,77.70
2023-01-15T23:31:52.054Z,78.10
2023-01-15T23:35:15.742Z,78.50
2023-01-15T23:38:41.574Z,78.80
2023-01-15T23:42:22.955Z,78.50
2023-01-15T23:46:06.505Z,78.90
2023-01-15T23:49:30.172Z,79.90
2023-01-15T23:52:53.695Z,79.30
2023-01-15T23:56:18.886Z,79.90
2023-01-15T23:59:43.770Z,79.20
